Nearby METAR Reports

 

KBVO - Bartlesville, Oklahoma, USA
Distance from station: WNW 10mi, 16km
Updated: Tue, 19-Jan-2021 4:53pm CST
Clear
Clear
 Wind from N
Wind: N 5 mph , 7 km/h
Temperature: 45°F , 7°C
Wind Chill: 42°F , 6°C
Dew Point: 21°F , -6°C
Humidity: 39%
Barometer: 30.45 inHg , 1031.2 hPa
Clouds: Clear
Visibility: 10 miles , 16 km
2021/01/19 22:53 KBVO 192253Z 35004KT 10SM CLR 07/M06 A3045 RMK AO2 SLP313 T00721061
KCFV - Coffeyville, Kansas, USA
Distance from station: NNE 31mi, 49km
Updated: Tue, 19-Jan-2021 4:52pm CST
Clear
Clear
 Wind from W
Wind: W 6 mph , 9 km/h
Temperature: 45°F , 7°C
Wind Chill: 42°F , 6°C
Dew Point: 21°F , -6°C
Humidity: 39%
Barometer: 30.43 inHg , 1030.5 hPa
Clouds: Clear
Visibility: 10 miles , 16 km
2021/01/19 22:52 KCFV 192252Z AUTO 28005KT 10SM CLR 07/M06 A3043 RMK AO2 SLP309 T00721061
 
KIDP - Independence, Kansas, USA
Distance from station: N 32mi, 52km
Updated: Tue, 19-Jan-2021 4:55pm CST
Clear
Clear
 Wind from W
Wind: W 6 mph , 9 km/h
Temperature: 45°F , 7°C
Wind Chill: 42°F , 6°C
Dew Point: 23°F , -5°C
Humidity: 42%
Barometer: 30.43 inHg , 1030.5 hPa
Clouds: Clear
Visibility: 10 miles , 16 km
2021/01/19 22:55 KIDP 192255Z AUTO 28005KT 10SM CLR 07/M05 A3043 RMK AO2 T00701055
KGCM - Claremore, Oklahoma, USA
Distance from station: SE 35mi, 56km
Updated: Tue, 19-Jan-2021 5:15pm CST
Partly cloudy
Partly cloudy
 Wind from calm
Wind: Calm
Temperature: 43°F , 6°C
Dew Point: 23°F , -5°C
Humidity: 46%
Barometer: 30.45 inHg , 1031.2 hPa
Clouds: Partly cloudy
Visibility: 10 miles , 16 km
Cloud details: Partly cloudy 10000 ft
2021/01/19 23:15 KGCM 192315Z AUTO 00000KT 10SM SCT100 06/M05 A3045 RMK AO2
 
KTUL - Tulsa, Oklahoma, USA
Distance from station: S 35mi, 56km
Updated: Tue, 19-Jan-2021 4:53pm CST
Mostly cloudy
Mostly cloudy
 Wind from NNW
Wind: NNW 7 mph , 11 km/h
Temperature: 46°F , 8°C
Wind Chill: 42°F , 6°C
Dew Point: 27°F , -3°C
Humidity: 46%
Barometer: 30.44 inHg , 1030.8 hPa
Clouds: Mostly cloudy
Visibility: 10 miles , 16 km
Cloud details: Mostly cloudy 11000 ft
Mostly cloudy 25000 ft
2021/01/19 22:53 KTUL 192253Z 33006KT 10SM BKN110 BKN250 08/M03 A3044 RMK AO2 SLP310 T00781033
KRVS - Tulsa, Oklahoma, USA
Distance from station: S 46mi, 74km
Updated: Tue, 19-Jan-2021 4:53pm CST
Clear
Clear
 Wind from calm
Wind: Calm
Temperature: 48°F , 9°C
Dew Point: 27°F , -3°C
Humidity: 43%
Barometer: 30.43 inHg , 1030.5 hPa
Clouds: Clear
Visibility: 10 miles , 16 km
2021/01/19 22:53 KRVS 192253Z 00000KT 10SM CLR 09/M03 A3043 RMK AO2 SLP312 T00891033
 
KPPF - Parsons, Kansas, USA
Distance from station: NNE 48mi, 76km
Updated: Tue, 19-Jan-2021 4:52pm CST

 
Barometer: 30.43 inHg , 1030.5 hPa
2021/01/19 22:52 KPPF 192252Z AUTO A3043 RMK AO2 SLPNO PWINO FZRANO TSNO $
KGMJ - Grove, Oklahoma, USA
Distance from station: E 63mi, 101km
Updated: Tue, 19-Jan-2021 5:15pm CST
Clear
Clear
 Wind from calm
Wind: Calm
Temperature: 43°F , 6°C
Dew Point: 27°F , -3°C
Humidity: 53%
Barometer: 30.44 inHg , 1030.8 hPa
Clouds: Clear
Visibility: 10 miles , 16 km
2021/01/19 23:15 KGMJ 192315Z AUTO 00000KT 10SM CLR 06/M03 A3044 RMK AO2
 
KPNC - Ponca City, Oklahoma, USA
Distance from station: W 69mi, 111km
Updated: Tue, 19-Jan-2021 4:53pm CST
Clear
Clear
 Wind from NNW
Wind: NNW 7 mph , 11 km/h
Temperature: 45°F , 7°C
Wind Chill: 41°F , 5°C
Dew Point: 19°F , -7°C
Humidity: 37%
Barometer: 30.44 inHg , 1030.8 hPa
Clouds: Clear
Visibility: 10 miles , 16 km
2021/01/19 22:53 KPNC 192253Z AUTO 34006KT 10SM CLR 07/M07 A3044 RMK AO2 SLP313 T00721067
KCNU - Chanute, Kansas, USA
Distance from station: NNE 69mi, 112km
Updated: Tue, 19-Jan-2021 4:52pm CST
Clear
Clear
 Wind from NW
Wind: NW 8 mph , 13 km/h
Temperature: 46°F , 8°C
Wind Chill: 42°F , 6°C
Dew Point: 23°F , -5°C
Humidity: 40%
Barometer: 30.41 inHg , 1029.8 hPa
Clouds: Clear
Visibility: 10 miles , 16 km
2021/01/19 22:52 KCNU 192252Z AUTO 31007KT 10SM CLR 08/M05 A3041 RMK AO2 SLP304 T00831050